createdAt,value
2019-04-28T00:00:42.279Z,22.62
2019-04-28T00:03:15.606Z,22.41
2019-04-28T00:05:51.026Z,22.34
2019-04-28T00:08:24.130Z,22.25
2019-04-28T00:10:57.470Z,22.22
2019-04-28T00:13:32.146Z,22.25
2019-04-28T00:16:05.614Z,22.19
2019-04-28T00:18:39.195Z,22.23
2019-04-28T00:21:12.511Z,22.15
2019-04-28T00:23:45.907Z,22.33
2019-04-28T00:26:21.160Z,22.18
2019-04-28T00:28:54.498Z,22.35
2019-04-28T00:31:27.851Z,22.17
2019-04-28T00:34:01.513Z,22.43
2019-04-28T00:36:34.950Z,22.27
2019-04-28T00:39:08.354Z,22.44
2019-04-28T00:41:42.162Z,22.28
2019-04-28T00:44:15.639Z,22.24
2019-04-28T00:46:51.104Z,22.20
2019-04-28T00:49:24.370Z,21.78
2019-04-28T00:51:58.037Z,22.04
2019-04-28T00:54:31.755Z,21.98
2019-04-28T00:57:05.184Z,22.10
2019-04-28T00:59:50.929Z,22.10
2019-04-28T01:02:13.565Z,22.24
2019-04-28T01:04:46.935Z,22.08
2019-04-28T01:07:21.280Z,22.02
2019-04-28T01:09:54.647Z,22.01
2019-04-28T01:12:28.346Z,22.25
2019-04-28T01:15:04.692Z,22.13
2019-04-28T01:17:39.772Z,22.10
2019-04-28T01:20:13.258Z,22.01
2019-04-28T01:22:46.621Z,21.99
2019-04-28T01:25:20.361Z,22.02
2019-04-28T01:27:53.835Z,22.00
2019-04-28T01:30:27.143Z,22.06
2019-04-28T01:33:00.524Z,21.96
2019-04-28T01:35:33.854Z,22.00
2019-04-28T01:38:07.179Z,21.99
2019-04-28T01:40:41.358Z,22.05
2019-04-28T01:43:14.858Z,21.91
2019-04-28T01:45:50.099Z,21.87
2019-04-28T01:48:23.290Z,21.85
2019-04-28T01:50:56.663Z,22.10
2019-04-28T01:53:30.805Z,21.80
2019-04-28T01:56:04.426Z,22.12
2019-04-28T01:58:37.787Z,21.97
2019-04-28T02:01:11.288Z,21.90
2019-04-28T02:03:46.193Z,21.89
2019-04-28T02:06:19.942Z,21.87
2019-04-28T02:08:53.366Z,21.78
2019-04-28T02:11:29.566Z,21.79
2019-04-28T02:14:02.922Z,21.82
2019-04-28T02:16:36.253Z,21.81
2019-04-28T02:19:10.764Z,21.77
2019-04-28T02:21:45.323Z,21.76
2019-04-28T02:24:20.217Z,21.78
2019-04-28T02:26:53.547Z,21.76
2019-04-28T02:29:30.485Z,21.71
2019-04-28T02:32:05.029Z,21.71
2019-04-28T02:34:40.963Z,21.66
2019-04-28T02:37:13.399Z,21.66
2019-04-28T02:39:46.715Z,21.92
2019-04-28T02:42:20.824Z,21.82
2019-04-28T02:44:54.426Z,21.77
2019-04-28T02:47:27.972Z,21.75
2019-04-28T02:50:01.488Z,22.02
2019-04-28T02:52:34.744Z,21.82
2019-04-28T02:55:08.075Z,21.75
2019-04-28T02:57:41.600Z,21.73
2019-04-28T03:00:15.197Z,21.67
2019-04-28T03:02:51.098Z,21.75
2019-04-28T03:05:23.687Z,21.69
2019-04-28T03:07:56.983Z,21.77
2019-04-28T03:10:31.279Z,21.68
2019-04-28T03:13:06.340Z,21.64
2019-04-28T03:15:41.404Z,21.60
2019-04-28T03:18:14.925Z,21.58
2019-04-28T03:20:48.311Z,21.57
2019-04-28T03:23:21.608Z,21.56
2019-04-28T03:25:54.954Z,21.55
2019-04-28T03:28:30.803Z,21.57
2019-04-28T03:31:35.198Z,21.55
2019-04-28T03:33:47.434Z,21.56
2019-04-28T03:36:16.021Z,21.67
2019-04-28T03:38:50.401Z,21.76
2019-04-28T03:41:24.747Z,21.83
2019-04-28T03:44:00.399Z,22.11
2019-04-28T03:46:34.338Z,22.11
2019-04-28T03:49:10.826Z,22.00
2019-04-28T03:51:44.311Z,22.30
2019-04-28T03:54:20.305Z,22.16
2019-04-28T03:56:53.901Z,22.58
2019-04-28T03:59:27.209Z,22.44
2019-04-28T04:02:03.350Z,22.53
2019-04-28T04:04:37.105Z,22.64
2019-04-28T04:07:11.254Z,23.27
2019-04-28T04:09:44.766Z,23.25
2019-04-28T04:12:21.104Z,23.36
2019-04-28T04:14:53.213Z,23.49
2019-04-28T04:17:26.550Z,23.64
2019-04-28T04:20:01.835Z,23.89
2019-04-28T04:22:35.895Z,23.94
2019-04-28T04:25:12.423Z,24.20
2019-04-28T04:27:44.237Z,24.20
2019-04-28T04:30:17.720Z,24.47
2019-04-28T04:32:51.053Z,24.39
2019-04-28T04:35:24.364Z,24.65
2019-04-28T04:38:00.247Z,24.54
2019-04-28T04:40:34.594Z,24.50
2019-04-28T04:43:07.934Z,24.48
2019-04-28T04:45:41.236Z,24.47
2019-04-28T04:48:14.578Z,24.48
2019-04-28T04:50:50.891Z,24.75
2019-04-28T04:53:26.083Z,24.56
2019-04-28T04:56:00.508Z,24.46
2019-04-28T04:58:34.075Z,24.35
2019-04-28T05:01:10.607Z,24.28
2019-04-28T05:03:44.117Z,24.29
2019-04-28T05:06:17.449Z,24.27
2019-04-28T05:08:50.852Z,24.42
2019-04-28T05:11:24.165Z,24.22
2019-04-28T05:13:59.597Z,24.42
2019-04-28T05:16:33.185Z,24.23
2019-04-28T05:19:10.212Z,24.47
2019-04-28T05:21:43.142Z,24.20
2019-04-28T05:24:17.521Z,24.04
2019-04-28T05:26:51.549Z,24.00
2019-04-28T05:29:26.777Z,23.98
2019-04-28T05:32:03.369Z,23.97
2019-04-28T05:34:35.036Z,23.92
2019-04-28T05:37:08.391Z,24.08
2019-04-28T05:39:41.823Z,23.95
2019-04-28T05:42:15.132Z,23.96
2019-04-28T05:44:49.671Z,23.99
2019-04-28T05:47:23.250Z,24.24
2019-04-28T05:49:56.680Z,23.96
2019-04-28T05:52:30.279Z,23.94
2019-04-28T05:55:04.833Z,23.87
2019-04-28T05:57:39.747Z,23.83
2019-04-28T06:00:13.197Z,23.87
2019-04-28T06:02:55.599Z,23.86
2019-04-28T06:05:21.761Z,23.94
2019-04-28T06:07:55.094Z,23.81
2019-04-28T06:10:29.904Z,23.72
2019-04-28T06:13:04.394Z,23.72
2019-04-28T06:15:39.562Z,24.05
2019-04-28T06:18:12.748Z,23.79
2019-04-28T06:20:46.063Z,23.75
2019-04-28T06:23:19.382Z,23.71
2019-04-28T06:25:52.733Z,23.62
2019-04-28T06:28:26.044Z,23.59
2019-04-28T06:30:59.620Z,23.59
2019-04-28T06:33:34.658Z,23.60
2019-04-28T06:36:08.072Z,23.62
2019-04-28T06:38:41.432Z,23.49
2019-04-28T06:41:14.797Z,23.57
2019-04-28T06:43:48.154Z,23.78
2019-04-28T06:46:21.481Z,23.65
2019-04-28T06:48:56.548Z,23.88
2019-04-28T06:51:29.844Z,23.70
2019-04-28T06:54:03.595Z,23.62
2019-04-28T06:56:36.971Z,23.54
2019-04-28T06:59:11.415Z,23.94
2019-04-28T07:01:44.747Z,23.69
2019-04-28T07:04:18.117Z,23.36
2019-04-28T07:06:51.418Z,23.55
2019-04-28T07:09:24.829Z,23.46
2019-04-28T07:11:58.353Z,23.44
2019-04-28T07:14:31.720Z,23.46
2019-04-28T07:17:05.023Z,23.69
2019-04-28T07:19:38.405Z,23.56
2019-04-28T07:22:11.776Z,23.40
2019-04-28T07:24:45.490Z,23.37
2019-04-28T07:27:18.796Z,23.36
2019-04-28T07:29:52.167Z,23.33
2019-04-28T07:32:27.394Z,23.73
2019-04-28T07:35:01.804Z,23.49
2019-04-28T07:37:35.118Z,23.85
2019-04-28T07:40:08.475Z,23.62
2019-04-28T07:42:41.771Z,23.32
2019-04-28T07:47:47.540Z,23.41
2019-04-28T07:50:20.896Z,23.52
2019-04-28T07:52:54.206Z,23.38
2019-04-28T07:55:27.563Z,23.37
2019-04-28T07:58:01.067Z,23.30
2019-04-28T08:00:34.447Z,23.59
2019-04-28T08:03:07.796Z,23.41
2019-04-28T08:05:41.211Z,23.32
2019-04-28T08:08:14.548Z,23.32
2019-04-28T08:10:47.874Z,23.26
2019-04-28T08:13:21.239Z,23.29
2019-04-28T08:15:54.596Z,23.36
2019-04-28T08:18:27.913Z,23.37
2019-04-28T08:21:01.286Z,23.29
2019-04-28T08:23:46.605Z,23.32
2019-04-28T08:26:09.691Z,23.25
2019-04-28T08:28:44.205Z,23.46
2019-04-28T08:31:17.548Z,23.40
2019-04-28T08:34:01.823Z,23.25
2019-04-28T08:36:25.953Z,23.23
2019-04-28T08:38:59.241Z,23.56
2019-04-28T08:41:32.883Z,23.34
2019-04-28T08:44:06.246Z,23.27
2019-04-28T08:46:39.906Z,23.22
2019-04-28T08:49:13.380Z,23.11
2019-04-28T08:51:47.108Z,23.26
2019-04-28T08:54:20.379Z,23.16
2019-04-28T08:56:53.941Z,23.28
2019-04-28T08:59:27.513Z,23.11
2019-04-28T09:02:00.704Z,23.40
2019-04-28T09:04:34.021Z,23.08
2019-04-28T09:07:07.626Z,23.09
2019-04-28T09:09:40.951Z,23.06
2019-04-28T09:12:14.286Z,23.08
2019-04-28T09:14:48.751Z,23.07
2019-04-28T09:17:22.094Z,23.09
2019-04-28T09:19:55.405Z,23.05
2019-04-28T09:22:29.221Z,23.02
2019-04-28T09:25:03.021Z,23.11
2019-04-28T09:27:36.432Z,23.11
2019-04-28T09:30:10.015Z,23.25
2019-04-28T09:32:43.342Z,23.12
2019-04-28T09:35:16.691Z,23.23
2019-04-28T09:37:50.117Z,23.18
2019-04-28T09:40:23.415Z,23.49
2019-04-28T09:42:56.578Z,23.44
2019-04-28T09:45:30.060Z,23.45
2019-04-28T09:48:03.551Z,23.47
2019-04-28T09:50:36.864Z,23.45
2019-04-28T09:53:10.214Z,23.42
2019-04-28T09:55:43.546Z,23.39
2019-04-28T09:58:17.077Z,23.36
2019-04-28T10:00:50.404Z,23.46
2019-04-28T10:03:25.319Z,23.07
2019-04-28T10:05:58.949Z,23.61
2019-04-28T10:08:32.440Z,23.68
2019-04-28T10:11:07.518Z,23.72
2019-04-28T10:13:40.890Z,23.76
2019-04-28T10:16:14.234Z,23.72
2019-04-28T10:18:47.752Z,23.71
2019-04-28T10:21:21.203Z,23.73
2019-04-28T10:23:54.607Z,23.75
2019-04-28T10:26:27.918Z,23.66
2019-04-28T10:29:01.423Z,23.73
2019-04-28T10:31:34.909Z,23.80
2019-04-28T10:34:08.328Z,23.79
2019-04-28T10:36:41.836Z,23.80
2019-04-28T10:39:15.197Z,23.80
2019-04-28T10:41:48.713Z,23.90
2019-04-28T10:44:22.231Z,23.80
2019-04-28T10:46:55.530Z,23.80
2019-04-28T10:49:28.942Z,23.79
2019-04-28T10:52:02.382Z,23.76
2019-04-28T10:54:35.842Z,23.74
2019-04-28T10:57:09.142Z,23.69
2019-04-28T10:59:42.486Z,23.73
2019-04-28T11:02:16.065Z,23.73
2019-04-28T11:04:49.639Z,23.58
2019-04-28T11:07:22.992Z,23.66
2019-04-28T11:09:56.324Z,23.64
2019-04-28T11:12:29.659Z,23.61
2019-04-28T11:15:04.460Z,23.61
2019-04-28T11:17:37.947Z,24.06
2019-04-28T11:20:11.305Z,23.78
2019-04-28T11:22:44.748Z,23.71
2019-04-28T11:25:18.074Z,23.65
2019-04-28T11:27:51.401Z,23.60
2019-04-28T11:30:24.690Z,23.55
2019-04-28T11:32:58.390Z,23.59
2019-04-28T11:35:31.690Z,23.55
2019-04-28T11:38:06.682Z,23.52
2019-04-28T11:40:40.014Z,23.45
2019-04-28T11:43:14.920Z,23.45
2019-04-28T11:45:48.217Z,23.72
2019-04-28T11:48:21.543Z,23.47
2019-04-28T11:50:55.129Z,23.51
2019-04-28T11:53:28.473Z,23.47
2019-04-28T11:56:01.792Z,23.36
2019-04-28T11:58:35.121Z,23.36
2019-04-28T12:01:08.727Z,23.43
2019-04-28T12:03:42.062Z,23.42
2019-04-28T12:06:15.386Z,23.43
2019-04-28T12:08:48.689Z,23.40
2019-04-28T12:11:22.011Z,23.44
2019-04-28T12:13:55.463Z,23.51
2019-04-28T12:16:28.788Z,23.55
2019-04-28T12:19:02.093Z,23.50
2019-04-28T12:21:35.463Z,23.53
2019-04-28T12:24:08.787Z,23.81
2019-04-28T12:26:42.218Z,23.64
2019-04-28T12:29:15.690Z,24.06
2019-04-28T12:31:49.212Z,23.76
2019-04-28T12:34:22.545Z,23.70
2019-04-28T12:36:56.133Z,23.67
2019-04-28T12:39:30.939Z,23.65
2019-04-28T12:42:04.607Z,23.59
2019-04-28T12:44:37.902Z,23.55
2019-04-28T12:47:11.247Z,23.51
2019-04-28T12:49:44.719Z,23.54
2019-04-28T12:52:18.070Z,23.66
2019-04-28T12:54:51.383Z,23.58
2019-04-28T12:57:24.737Z,23.45
2019-04-28T12:59:58.059Z,23.33
2019-04-28T13:02:31.486Z,23.34
2019-04-28T13:05:04.816Z,23.38
2019-04-28T13:07:38.213Z,23.71
2019-04-28T13:10:11.566Z,23.45
2019-04-28T13:12:44.852Z,23.36
2019-04-28T13:15:18.214Z,23.25
2019-04-28T13:17:51.559Z,23.72
2019-04-28T13:20:24.868Z,23.45
2019-04-28T13:22:58.212Z,23.43
2019-04-28T13:25:33.126Z,23.46
2019-04-28T13:28:06.467Z,23.46
2019-04-28T13:30:39.781Z,23.42
2019-04-28T13:33:13.254Z,23.43
2019-04-28T13:35:46.734Z,23.49
2019-04-28T13:38:20.099Z,23.64
2019-04-28T13:40:53.428Z,23.66
2019-04-28T13:43:28.340Z,23.65
2019-04-28T13:46:01.698Z,23.58
2019-04-28T13:48:35.000Z,23.68
2019-04-28T13:51:08.352Z,23.61
2019-04-28T13:53:41.669Z,23.57
2019-04-28T13:56:15.297Z,23.63
2019-04-28T13:58:48.669Z,23.67
2019-04-28T14:01:22.020Z,23.70
2019-04-28T14:03:55.365Z,23.81
2019-04-28T14:06:28.992Z,23.69
2019-04-28T14:09:04.190Z,23.92
2019-04-28T14:11:39.133Z,23.74
2019-04-28T14:14:12.435Z,23.70
2019-04-28T14:16:45.822Z,23.65
2019-04-28T14:19:19.145Z,23.52
2019-04-28T14:21:52.946Z,23.54
2019-04-28T14:24:26.300Z,23.90
2019-04-28T14:26:59.577Z,23.81
2019-04-28T14:29:32.923Z,23.73
2019-04-28T14:32:06.373Z,23.74
2019-04-28T14:34:39.765Z,23.67
2019-04-28T14:37:13.227Z,23.67
2019-04-28T14:39:46.530Z,23.67
2019-04-28T14:42:19.941Z,23.65
2019-04-28T14:44:53.288Z,23.57
2019-04-28T14:47:26.631Z,23.53
2019-04-28T14:50:02.693Z,23.46
2019-04-28T14:52:36.349Z,23.74
2019-04-28T14:55:09.956Z,23.58
2019-04-28T14:57:43.284Z,23.56
2019-04-28T15:00:16.668Z,23.46
2019-04-28T15:02:50.438Z,23.31
2019-04-28T15:05:23.791Z,23.22
2019-04-28T15:07:57.122Z,23.38
2019-04-28T15:10:30.501Z,23.38
2019-04-28T15:13:03.837Z,23.34
2019-04-28T15:15:37.221Z,23.43
2019-04-28T15:18:10.613Z,23.49
2019-04-28T15:20:46.638Z,23.51
2019-04-28T15:23:19.957Z,23.51
2019-04-28T15:25:53.295Z,23.78
2019-04-28T15:28:26.702Z,23.60
2019-04-28T15:31:00.051Z,23.49
2019-04-28T15:33:33.350Z,23.46
2019-04-28T15:36:07.855Z,23.45
2019-04-28T15:38:41.257Z,23.54
2019-04-28T15:41:21.382Z,23.46
2019-04-28T15:43:49.603Z,23.68
2019-04-28T15:46:22.924Z,23.46
2019-04-28T15:48:56.267Z,23.42
2019-04-28T15:51:30.672Z,23.45
2019-04-28T15:54:04.686Z,23.45
2019-04-28T15:56:37.992Z,23.46
2019-04-28T15:59:12.042Z,23.41
2019-04-28T16:01:45.316Z,23.39
2019-04-28T16:04:18.760Z,23.37
2019-04-28T16:06:52.013Z,23.37
2019-04-28T16:09:25.335Z,23.39
2019-04-28T16:11:58.874Z,23.53
2019-04-28T16:14:32.234Z,23.44
2019-04-28T16:17:05.557Z,23.42
2019-04-28T16:19:38.927Z,23.29
2019-04-28T16:22:12.263Z,23.34
2019-04-28T16:24:45.659Z,23.32
2019-04-28T16:27:18.967Z,23.36
2019-04-28T16:29:52.542Z,23.36
2019-04-28T16:32:25.909Z,23.59
2019-04-28T16:34:59.227Z,23.45
2019-04-28T16:37:38.828Z,23.41
2019-04-28T16:40:09.530Z,23.41
2019-04-28T16:42:43.112Z,23.38
2019-04-28T16:47:50.908Z,23.42
2019-04-28T16:50:24.216Z,23.40
2019-04-28T16:52:59.176Z,23.41
2019-04-28T16:55:32.482Z,23.41
2019-04-28T16:58:06.041Z,23.37
2019-04-28T17:00:39.523Z,23.35
2019-04-28T17:03:12.889Z,23.35
2019-04-28T17:05:46.214Z,23.36
2019-04-28T17:08:19.566Z,23.41
2019-04-28T17:10:52.904Z,23.54
2019-04-28T17:13:26.323Z,23.59
2019-04-28T17:15:59.721Z,23.67
2019-04-28T17:18:33.070Z,23.70
2019-04-28T17:21:06.396Z,23.76
2019-04-28T17:23:39.744Z,23.94
2019-04-28T17:26:15.462Z,23.86
2019-04-28T17:28:49.883Z,23.88
2019-04-28T17:31:23.205Z,23.88
2019-04-28T17:33:56.727Z,23.89
2019-04-28T17:36:30.117Z,23.88
2019-04-28T17:39:06.506Z,23.89
2019-04-28T17:41:41.489Z,23.87
2019-04-28T17:44:17.137Z,23.55
2019-04-28T17:46:50.121Z,23.82
2019-04-28T17:49:23.483Z,23.78
2019-04-28T17:51:56.794Z,24.06
2019-04-28T17:54:30.926Z,23.85
2019-04-28T17:57:04.670Z,23.77
2019-04-28T17:59:38.173Z,23.75
2019-04-28T18:02:11.541Z,24.15
2019-04-28T18:04:44.910Z,23.92
2019-04-28T18:07:18.229Z,23.79
2019-04-28T18:09:51.751Z,23.83
2019-04-28T18:12:25.049Z,23.66
2019-04-28T18:14:58.468Z,23.64
2019-04-28T18:17:31.784Z,23.53
2019-04-28T18:20:05.691Z,23.77
2019-04-28T18:22:40.631Z,23.68
2019-04-28T18:25:14.008Z,23.61
2019-04-28T18:27:47.335Z,23.56
2019-04-28T18:30:20.756Z,23.53
2019-04-28T18:32:54.068Z,23.50
2019-04-28T18:35:27.410Z,23.53
2019-04-28T18:40:33.189Z,23.45
2019-04-28T18:43:06.488Z,23.42
2019-04-28T18:45:39.842Z,23.39
2019-04-28T18:48:13.284Z,23.64
2019-04-28T18:50:46.855Z,23.41
2019-04-28T18:53:20.217Z,23.36
2019-04-28T18:55:53.658Z,23.34
2019-04-28T18:58:27.107Z,23.66
2019-04-28T19:01:00.702Z,23.46
2019-04-28T19:03:35.709Z,23.30
2019-04-28T19:06:09.053Z,23.34
2019-04-28T19:08:49.336Z,23.14
2019-04-28T19:11:17.508Z,23.01
2019-04-28T19:13:50.811Z,22.99
2019-04-28T19:16:24.189Z,22.95
2019-04-28T19:18:57.584Z,22.92
2019-04-28T19:21:30.966Z,22.85
2019-04-28T19:24:04.498Z,22.75
2019-04-28T19:26:37.893Z,22.80
2019-04-28T19:29:12.822Z,22.75
2019-04-28T19:31:46.171Z,22.72
2019-04-28T19:34:19.671Z,22.68
2019-04-28T19:36:52.963Z,22.66
2019-04-28T19:39:26.313Z,22.68
2019-04-28T19:41:59.603Z,22.67
2019-04-28T19:44:33.002Z,22.72
2019-04-28T19:47:06.666Z,22.72
2019-04-28T19:49:40.137Z,22.68
2019-04-28T19:52:13.808Z,22.72
2019-04-28T19:54:48.486Z,22.71
2019-04-28T19:57:21.851Z,22.71
2019-04-28T19:59:55.149Z,22.73
2019-04-28T20:02:28.483Z,22.72
2019-04-28T20:05:01.808Z,22.75
2019-04-28T20:07:35.332Z,22.69
2019-04-28T20:10:09.216Z,22.71
2019-04-28T20:12:43.339Z,22.76
2019-04-28T20:15:16.775Z,23.03
2019-04-28T20:17:50.506Z,22.93
2019-04-28T20:20:23.908Z,23.04
2019-04-28T20:22:57.487Z,23.12
2019-04-28T20:25:30.887Z,22.79
2019-04-28T20:28:04.319Z,23.36
2019-04-28T20:30:37.704Z,23.32
2019-04-28T20:33:11.498Z,23.34
2019-04-28T20:35:44.836Z,23.35
2019-04-28T20:38:18.455Z,23.27
2019-04-28T20:40:51.826Z,23.27
2019-04-28T20:43:26.541Z,23.64
2019-04-28T20:45:59.850Z,23.42
2019-04-28T20:48:33.238Z,23.44
2019-04-28T20:51:06.603Z,23.45
2019-04-28T20:53:39.904Z,23.57
2019-04-28T20:56:13.213Z,23.57
2019-04-28T20:58:49.800Z,23.57
2019-04-28T21:01:23.109Z,23.54
2019-04-28T21:03:56.451Z,23.47
2019-04-28T21:06:29.771Z,23.46
2019-04-28T21:09:05.065Z,23.48
2019-04-28T21:11:39.359Z,23.55
2019-04-28T21:14:12.695Z,23.49
2019-04-28T21:16:46.991Z,23.42
2019-04-28T21:19:20.291Z,23.44
2019-04-28T21:21:53.704Z,23.74
2019-04-28T21:24:27.102Z,23.53
2019-04-28T21:27:00.467Z,23.50
2019-04-28T21:29:35.480Z,23.47
2019-04-28T21:32:08.897Z,23.41
2019-04-28T21:34:42.573Z,23.41
2019-04-28T21:37:18.384Z,23.33
2019-04-28T21:39:51.063Z,23.29
2019-04-28T21:42:24.692Z,23.30
2019-04-28T21:44:58.173Z,23.48
2019-04-28T21:47:31.507Z,23.24
2019-04-28T21:50:05.649Z,23.16
2019-04-28T21:52:39.017Z,23.12
2019-04-28T21:55:12.337Z,23.09
2019-04-28T21:57:47.310Z,22.99
2019-04-28T22:00:20.934Z,22.96
2019-04-28T22:03:11.825Z,22.86
2019-04-28T22:05:45.144Z,22.72
2019-04-28T22:08:18.584Z,22.68
2019-04-28T22:10:51.978Z,22.68
2019-04-28T22:13:25.311Z,22.85
2019-04-28T22:15:58.636Z,22.61
2019-04-28T22:18:32.026Z,22.60
2019-04-28T22:21:05.343Z,22.58
2019-04-28T22:23:38.676Z,22.74
2019-04-28T22:26:11.965Z,22.68
2019-04-28T22:28:45.483Z,22.80
2019-04-28T22:31:18.843Z,22.66
2019-04-28T22:33:52.364Z,22.60
2019-04-28T22:36:25.681Z,22.55
2019-04-28T22:38:59.035Z,22.80
2019-04-28T22:41:33.419Z,22.61
2019-04-28T22:44:06.767Z,22.59
2019-04-28T22:46:40.147Z,22.63
2019-04-28T22:49:13.479Z,22.95
2019-04-28T22:51:46.854Z,22.64
2019-04-28T22:54:20.021Z,22.61
2019-04-28T22:56:53.313Z,22.60
2019-04-28T22:59:26.658Z,22.61
2019-04-28T23:02:00.013Z,22.71
2019-04-28T23:04:33.502Z,22.64
2019-04-28T23:07:06.949Z,22.77
2019-04-28T23:09:40.321Z,22.65
2019-04-28T23:12:14.872Z,22.84
2019-04-28T23:14:48.507Z,22.72
2019-04-28T23:17:21.814Z,22.68
2019-04-28T23:19:55.517Z,22.62
2019-04-28T23:22:28.813Z,22.63
2019-04-28T23:25:02.800Z,22.61
2019-04-28T23:27:36.122Z,22.87
2019-04-28T23:30:09.535Z,22.67
2019-04-28T23:32:42.863Z,22.86
2019-04-28T23:35:16.180Z,22.72
2019-04-28T23:37:49.365Z,22.97
2019-04-28T23:40:22.854Z,22.79
2019-04-28T23:42:56.252Z,22.71
2019-04-28T23:45:29.685Z,22.69
2019-04-28T23:48:03.186Z,22.64
2019-04-28T23:50:36.667Z,22.60
2019-04-28T23:53:10.017Z,22.62
2019-04-28T23:55:43.358Z,22.56
2019-04-28T23:58:16.712Z,22.49
